Time;durP1;ratioP1;P1;durP2;ratioP2;P2;SDS_P1;SDS_P2;PMS_P1;PMS_P2;Temp;Humidity;BMP_temperature;BMP_pressure;BME280_temperature;BME280_humidity;BME280_pressure;Samples;Min_cycle;Max_cycle;Signal;HPM_P1;HPM_P2
2021/10/10 01:12:06;;;;;;;11.88;10.48;;;;;;;17.74;71.81;102927.72;5182098;23;20143;-81
2021/10/10 01:14:36;;;;;;;13.27;11.35;;;;;;;17.71;71.90;102914.63;4913023;29;20032;-81
2021/10/10 01:17:02;;;;;;;13.63;11.13;;;;;;;17.72;72.88;102925.06;4914069;29;20127;-81
2021/10/10 01:19:31;;;;;;;13.35;11.00;;;;;;;17.69;72.21;102915.47;4927952;29;20043;-81
2021/10/10 01:21:58;;;;;;;12.27;10.38;;;;;;;17.71;71.96;102909.44;4928029;29;20110;-81
2021/10/10 01:24:24;;;;;;;11.70;10.50;;;;;;;17.72;72.30;102917.25;4910157;29;20031;-81
2021/10/10 01:26:49;;;;;;;11.77;10.48;;;;;;;17.72;72.30;102914.66;4926852;29;20020;-81
2021/10/10 01:29:15;;;;;;;12.18;10.88;;;;;;;17.71;71.66;102915.50;4895313;29;20095;-81
2021/10/10 01:31:41;;;;;;;11.68;10.48;;;;;;;17.72;71.92;102908.56;4910174;29;20039;-81
2021/10/10 01:34:06;;;;;;;12.57;10.75;;;;;;;17.69;71.80;102909.38;4928125;29;20095;-81
2021/10/10 01:36:34;;;;;;;11.55;10.45;;;;;;;17.71;71.89;102904.22;4927685;29;20035;-81
2021/10/10 01:39:00;;;;;;;11.23;9.98;;;;;;;17.72;72.50;102905.97;4926206;29;20500;-81
2021/10/10 01:41:25;;;;;;;12.10;10.40;;;;;;;17.69;71.94;102901.56;4925202;29;20028;-81
2021/10/10 01:43:50;;;;;;;11.60;10.38;;;;;;;17.69;72.56;102902.44;4892080;29;20047;-81
2021/10/10 01:46:16;;;;;;;11.48;10.23;;;;;;;17.68;71.91;102900.69;4892053;29;20032;-81
2021/10/10 01:48:41;;;;;;;11.60;10.40;;;;;;;17.68;71.88;102902.41;4907179;29;20032;-80
2021/10/10 01:51:07;;;;;;;12.65;10.45;;;;;;;17.68;72.02;102891.97;4891254;29;20063;-81
2021/10/10 01:53:32;;;;;;;11.27;10.00;;;;;;;17.68;72.07;102900.69;4891163;29;20039;-81
2021/10/10 01:55:58;;;;;;;11.80;10.55;;;;;;;17.67;71.78;102896.31;4875883;29;20036;-81
2021/10/10 01:58:23;;;;;;;10.93;9.75;;;;;;;17.68;72.49;102903.31;4891451;29;20024;-80
2021/10/10 02:00:48;;;;;;;12.40;10.73;;;;;;;17.66;71.67;102894.56;4906612;29;20032;-81
2021/10/10 02:03:14;;;;;;;11.25;10.05;;;;;;;17.65;71.51;102897.13;4890764;29;20067;-81
2021/10/10 02:05:39;;;;;;;10.85;9.75;;;;;;;17.66;71.80;102899.78;4905903;29;20059;-80
2021/10/10 02:08:05;;;;;;;12.18;9.95;;;;;;;17.66;72.19;102899.78;4889639;29;20028;-80
2021/10/10 02:10:30;;;;;;;11.23;10.02;;;;;;;17.66;71.96;102893.69;4904560;29;20024;-80
2021/10/10 02:12:55;;;;;;;14.32;10.10;;;;;;;17.66;71.66;102894.56;4906731;29;20579;-80
2021/10/10 02:15:21;;;;;;;11.25;9.65;;;;;;;17.66;72.37;102893.69;4892505;29;20038;-80
2021/10/10 02:17:46;;;;;;;12.07;9.98;;;;;;;17.67;71.72;102898.03;4890657;29;20031;-80
2021/10/10 02:20:12;;;;;;;10.63;9.52;;;;;;;17.65;71.88;102898.00;4905685;29;20035;-80
2021/10/10 02:22:37;;;;;;;10.80;9.65;;;;;;;17.65;72.02;102899.75;4918657;29;20016;-81
2021/10/10 02:25:05;;;;;;;11.18;9.98;;;;;;;17.64;71.58;102896.25;4923010;29;20028;-80
2021/10/10 02:27:30;;;;;;;12.20;10.23;;;;;;;17.64;71.85;102887.56;4923954;29;20016;-81
2021/10/10 02:29:56;;;;;;;10.50;9.18;;;;;;;17.63;71.25;102886.69;4923409;29;20039;-81
2021/10/10 02:32:22;;;;;;;10.68;9.57;;;;;;;17.64;71.52;102883.25;4922248;29;20059;-81
2021/10/10 02:34:47;;;;;;;11.50;10.30;;;;;;;17.63;72.00;102885.81;4903560;29;20035;-81
2021/10/10 02:37:12;;;;;;;11.32;10.13;;;;;;;17.64;71.56;102882.38;4915497;29;20045;-81
2021/10/10 02:39:38;;;;;;;11.57;9.60;;;;;;;17.62;71.90;102879.72;4894260;29;20028;-81
2021/10/10 02:42:04;;;;;;;10.27;9.27;;;;;;;17.62;71.24;102884.94;4906189;29;20036;-81
2021/10/10 02:44:30;;;;;;;10.32;9.32;;;;;;;17.63;71.46;102883.19;4905494;29;20024;-81
2021/10/10 02:46:55;;;;;;;10.55;9.45;;;;;;;17.62;71.61;102876.25;4922743;29;20035;-81
2021/10/10 02:49:21;;;;;;;10.35;9.27;;;;;;;17.63;71.02;102880.59;4896385;29;20028;-81
2021/10/10 02:51:47;;;;;;;10.55;9.45;;;;;;;17.62;72.11;102876.25;4901014;29;20103;-81
2021/10/10 02:54:12;;;;;;;10.77;9.70;;;;;;;17.61;72.00;102870.13;4910612;29;20047;-81
2021/10/10 02:56:38;;;;;;;11.10;9.43;;;;;;;17.60;71.77;102860.59;4891996;29;20554;-81
2021/10/10 02:59:03;;;;;;;10.38;9.27;;;;;;;17.61;71.44;102864.06;4906441;29;20036;-81
2021/10/10 03:01:28;;;;;;;10.32;9.23;;;;;;;17.62;72.00;102865.84;4890954;29;20056;-81
2021/10/10 03:03:54;;;;;;;10.85;9.02;;;;;;;17.60;71.36;102868.41;4889895;29;20038;-81
2021/10/10 03:06:19;;;;;;;10.05;9.05;;;;;;;17.60;71.45;102863.19;4889552;29;20079;-81
2021/10/10 03:08:46;;;;;;;10.02;9.02;;;;;;;17.59;71.77;102857.94;4906263;29;20052;-81
2021/10/10 03:11:12;;;;;;;9.60;8.65;;;;;;;17.58;70.31;102858.78;4888979;29;20116;-80
2021/10/10 05:05:41;;;;;;;8.52;7.63;;;;;;;17.51;70.16;102820.44;5583276;23;20428;-79
2021/10/10 05:08:10;;;;;;;8.70;7.80;;;;;;;17.51;69.92;102823.94;4909226;29;20075;-79
2021/10/10 05:10:37;;;;;;;8.77;7.88;;;;;;;17.50;70.20;102819.56;4907128;29;20433;-80
2021/10/10 05:13:03;;;;;;;8.80;7.90;;;;;;;17.50;70.46;102816.09;4907184;29;20111;-80
2021/10/10 05:15:29;;;;;;;8.35;7.45;;;;;;;17.50;70.01;102805.66;4891657;29;20028;-79
2021/10/10 05:17:54;;;;;;;8.40;7.50;;;;;;;17.50;69.86;102800.47;4923933;29;20115;-79
2021/10/10 05:20:20;;;;;;;8.27;7.47;;;;;;;17.50;69.84;102803.94;4905867;29;20032;-79
2021/10/10 05:22:45;;;;;;;9.68;7.47;;;;;;;17.50;70.25;102810.88;4905356;29;20039;-79
2021/10/10 05:25:11;;;;;;;8.57;7.78;;;;;;;17.50;70.33;102801.34;4911774;29;20035;-80
2021/10/10 05:27:36;;;;;;;8.40;7.50;;;;;;;17.50;70.24;102806.53;4908714;29;20036;-81
2021/10/10 05:30:02;;;;;;;8.35;7.15;;;;;;;17.50;70.26;102816.97;4908412;29;20042;-81
2021/10/10 05:32:28;;;;;;;8.50;7.60;;;;;;;17.51;69.74;102821.34;4919674;29;20023;-80
2021/10/10 05:34:53;;;;;;;7.85;7.05;;;;;;;17.51;70.67;102815.22;4908855;29;20429;-80
2021/10/10 05:40:05;;;;;;;8.68;7.78;;;;;;;17.48;69.78;102814.34;5221509;23;20063;-82
2021/10/10 05:42:32;;;;;;;8.15;7.32;;;;;;;17.48;69.77;102801.31;4934012;29;20023;-81
2021/10/10 05:44:59;;;;;;;8.40;7.55;;;;;;;17.48;69.66;102806.53;4933510;29;20024;-81
2021/10/10 05:50:00;;;;;;;8.85;7.35;;;;;;;17.50;69.53;102816.09;5810520;23;20048;-83
2021/10/10 07:08:17;;;;;;;13.57;11.15;;;;;;;17.51;67.24;102836.03;4941466;23;19914;-83
2021/10/10 07:14:06;;;;;;;13.98;11.27;;;;;;;17.52;67.05;102838.69;4920965;29;20111;-80
2021/10/10 07:16:33;;;;;;;14.57;11.88;;;;;;;17.56;66.79;102844.84;4920413;29;20092;-80
2021/10/10 07:19:00;;;;;;;16.70;11.77;;;;;;;17.57;66.46;102849.22;4903371;29;20037;-80
2021/10/10 07:26:24;;;;;;;39.35;16.83;;;;;;;17.59;66.17;102845.78;4903750;29;20035;-80
2021/10/10 07:28:51;;;;;;;31.35;16.48;;;;;;;17.59;66.45;102856.19;4904565;29;20035;-82
2021/10/10 07:57:43;;;;;;;21.95;12.57;;;;;;;17.85;65.32;102864.63;5071842;23;20089;-86
2021/10/10 08:42:49;;;;;;;;;;;;;;;18.15;66.07;102866.13;5037426;23;20047;-89
2021/10/10 08:48:18;;;;;;;15.98;10.57;;;;;;;18.21;66.01;102861.03;5046679;23;20059;-89
2021/10/10 08:50:44;;;;;;;13.82;9.48;;;;;;;18.24;65.75;102852.41;4915927;29;20641;-90
2021/10/10 09:01:29;;;;;;;14.20;9.55;;;;;;;18.30;65.92;102858.59;1308210;23;20366;-88
2021/10/10 09:03:55;;;;;;;14.88;9.90;;;;;;;18.31;66.14;102859.47;4915586;29;20036;-87
2021/10/10 09:06:21;;;;;;;15.27;9.93;;;;;;;18.30;66.26;102869.03;4913236;29;20047;-87
2021/10/10 09:15:23;;;;;;;15.18;9.02;;;;;;;18.35;66.13;102882.16;5068656;23;20070;-86
2021/10/10 09:30:24;;;;;;;14.80;9.80;;;;;;;18.38;66.49;102894.38;4930216;29;20050;-87
2021/10/10 09:33:04;;;;;;;12.50;8.80;;;;;;;18.35;66.14;102883.88;4931493;29;20068;-87
2021/10/10 09:35:30;;;;;;;14.35;9.25;;;;;;;18.33;66.39;102886.44;4918018;29;20032;-87
2021/10/10 09:47:17;;;;;;;12.43;9.15;;;;;;;18.38;66.35;102894.38;4934616;29;20070;-87
2021/10/10 09:49:43;;;;;;;14.02;9.73;;;;;;;18.42;66.52;102893.56;4914659;29;20481;-88
2021/10/10 09:52:08;;;;;;;12.73;9.35;;;;;;;18.40;66.79;102896.19;4898021;29;20059;-87
2021/10/10 09:54:57;;;;;;;11.88;9.02;;;;;;;18.40;67.17;102883.16;4909841;29;20122;-86
2021/10/10 09:57:24;;;;;;;12.80;9.50;;;;;;;18.38;66.81;102889.16;4929815;29;20505;-86
2021/10/10 10:02:40;;;;;;;14.02;9.40;;;;;;;18.31;67.30;102877.72;4934914;29;20039;-87
2021/10/10 10:05:32;;;;;;;13.52;9.55;;;;;;;18.30;67.39;102875.97;4917548;29;20040;-86
2021/10/10 10:07:59;;;;;;;12.73;9.93;;;;;;;18.27;67.41;102879.41;4916640;29;20039;-86
2021/10/10 10:10:47;;;;;;;13.20;9.13;;;;;;;18.28;67.72;102875.06;4911949;29;20392;-86
2021/10/10 10:13:17;;;;;;;14.00;9.82;;;;;;;18.27;67.59;102884.63;4903198;29;20099;-88
2021/10/10 10:15:45;;;;;;;11.10;9.45;;;;;;;18.30;67.63;102883.81;4916068;29;20039;-86
2021/10/10 10:21:33;;;;;;;12.05;9.70;;;;;;;18.28;67.44;102881.16;4937731;29;20103;-86
2021/10/10 10:24:15;;;;;;;12.43;9.90;;;;;;;18.28;67.26;102886.38;4935764;29;20028;-87
2021/10/10 10:46:09;;;;;;;11.57;9.00;;;;;;;18.41;66.78;102864.03;4878017;29;20068;-86
2021/10/10 10:52:29;;;;;;;10.65;8.20;;;;;;;18.42;66.31;102870.13;4878528;29;20051;-85
2021/10/10 10:58:53;;;;;;;12.70;9.02;;;;;;;18.38;66.88;102870.91;4884013;29;20093;-86
2021/10/10 11:07:32;;;;;;;10.88;8.63;;;;;;;18.36;66.83;102873.50;5055603;23;20056;-84
2021/10/10 11:16:45;;;;;;;10.63;8.30;;;;;;;18.40;66.08;102869.22;5032487;23;20116;-88
2021/10/10 11:19:12;;;;;;;9.77;8.20;;;;;;;18.39;66.73;102870.94;4918187;29;20028;-89
2021/10/10 11:35:08;;;;;;;9.60;7.97;;;;;;;18.35;66.68;102860.44;4940877;29;20057;-86
2021/10/10 11:56:12;;;;;;;8.68;7.75;;;;;;;18.33;66.60;102867.34;5262209;23;20060;-90
2021/10/10 11:58:38;;;;;;;9.43;7.88;;;;;;;18.35;66.86;102863.03;4905926;29;20040;-92
2021/10/10 12:04:34;;;;;;;10.05;8.45;;;;;;;18.36;66.40;102862.19;5108208;23;20067;-91
2021/10/10 12:11:09;;;;;;;9.52;7.95;;;;;;;18.38;66.39;102858.78;4939162;29;20071;-92
2021/10/10 12:13:54;;;;;;;9.60;8.15;;;;;;;18.38;66.30;102848.34;4913905;29;20096;-86
2021/10/10 12:25:01;;;;;;;9.43;8.43;;;;;;;18.36;66.57;102844.81;5067308;23;20052;-88
2021/10/10 12:27:30;;;;;;;9.00;8.10;;;;;;;18.36;66.50;102847.44;4899583;29;20099;-87
2021/10/10 12:36:54;;;;;;;9.00;8.10;;;;;;;18.36;66.11;102841.34;4938714;29;20063;-87
2021/10/10 12:52:01;;;;;;;8.73;7.85;;;;;;;18.40;65.99;102812.75;4934628;29;20059;-87
2021/10/10 12:54:28;;;;;;;8.73;7.82;;;;;;;18.42;65.83;102813.66;4912833;29;20065;-87
2021/10/10 13:03:42;;;;;;;8.45;7.53;;;;;;;18.45;65.98;102812.84;4935265;29;20051;-87
2021/10/10 13:06:27;;;;;;;8.63;7.35;;;;;;;18.49;65.87;102806.84;4898312;29;20053;-86
2021/10/10 13:12:52;;;;;;;8.65;7.10;;;;;;;18.56;65.97;102807.81;4932639;29;20159;-86
2021/10/10 13:18:40;;;;;;;8.23;7.30;;;;;;;18.58;65.71;102807.00;4930734;29;20092;-87
2021/10/10 13:21:06;;;;;;;8.30;7.47;;;;;;;18.61;65.66;102808.78;4930466;29;20032;-86
2021/10/10 13:23:32;;;;;;;8.18;7.47;;;;;;;18.59;65.82;102805.25;4926594;29;20103;-86
2021/10/10 13:29:19;;;;;;;8.02;7.22;;;;;;;18.60;65.49;102801.81;4929873;29;20043;-86
2021/10/10 13:31:51;;;;;;;7.90;6.97;;;;;;;18.60;65.28;102801.81;4910303;29;20462;-87
2021/10/10 13:34:23;;;;;;;8.18;7.05;;;;;;;18.60;65.41;102809.63;4908445;29;20027;-87
2021/10/10 13:36:50;;;;;;;7.55;6.85;;;;;;;18.58;65.65;102803.50;4910918;29;20038;-87
2021/10/10 13:39:16;;;;;;;7.05;6.40;;;;;;;18.58;65.50;102798.28;4929389;29;20477;-86
2021/10/10 13:48:29;;;;;;;7.75;7.05;;;;;;;18.56;65.42;102800.88;4912439;29;20458;-87
2021/10/10 13:51:34;;;;;;;8.20;7.43;;;;;;;18.55;65.36;102801.69;4897686;29;20035;-86
2021/10/10 13:54:00;;;;;;;7.50;6.55;;;;;;;18.53;65.07;102803.44;4869736;29;20529;-86
2021/10/10 13:56:25;;;;;;;7.55;6.85;;;;;;;18.52;65.03;102799.06;4839835;29;20046;-86
2021/10/10 14:08:36;;;;;;;7.60;6.90;;;;;;;18.52;65.31;102785.16;4995169;23;20072;-87
2021/10/10 14:14:21;;;;;;;7.72;6.93;;;;;;;18.53;65.15;102792.09;5024807;23;20393;-85
2021/10/10 14:22:43;;;;;;;7.85;7.05;;;;;;;18.50;65.40;102788.59;4968387;23;20532;-84
2021/10/10 14:25:15;;;;;;;7.85;7.05;;;;;;;18.48;65.33;102785.06;4912363;29;20040;-86
2021/10/10 14:31:02;;;;;;;7.10;6.40;;;;;;;18.48;65.17;102764.22;4931936;29;20048;-87
2021/10/10 14:40:13;;;;;;;7.38;6.68;;;;;;;18.50;65.12;102772.06;4929753;29;20103;-87
2021/10/10 14:45:31;;;;;;;7.95;7.15;;;;;;;18.48;65.45;102768.56;4917217;29;20496;-88
2021/10/10 14:48:00;;;;;;;7.45;6.75;;;;;;;18.48;65.42;102763.34;4915907;29;20037;-88
2021/10/10 14:53:48;;;;;;;7.60;6.80;;;;;;;18.47;65.27;102765.09;4932541;29;20117;-85
2021/10/10 15:00:21;;;;;;;7.43;6.40;;;;;;;18.48;65.35;102760.75;4934313;29;20117;-87
2021/10/10 15:02:47;;;;;;;7.57;6.88;;;;;;;18.48;64.90;102763.34;4916953;29;20036;-87
2021/10/10 15:05:13;;;;;;;7.13;6.43;;;;;;;18.49;65.31;102767.72;4932141;29;20084;-87
2021/10/10 15:10:26;;;;;;;7.10;6.40;;;;;;;18.48;65.08;102759.00;4985870;23;20070;-87
2021/10/10 15:12:53;;;;;;;6.93;6.13;;;;;;;18.48;65.10;102763.34;4900964;29;20028;-87
2021/10/10 15:38:48;;;;;;;6.32;5.72;;;;;;;18.48;65.09;102743.38;4934493;29;20119;-84
2021/10/10 15:44:13;;;;;;;7.40;6.25;;;;;;;18.47;65.26;102741.63;4956027;23;20047;-86
2021/10/10 15:46:50;;;;;;;6.68;6.07;;;;;;;18.46;65.25;102739.84;4891349;29;20041;-85
2021/10/10 15:49:52;;;;;;;7.88;6.90;;;;;;;18.47;65.38;102730.31;4865794;29;20048;-87
2021/10/10 15:52:18;;;;;;;6.53;5.93;;;;;;;18.47;65.13;102725.13;4882118;29;20017;-87
2021/10/10 16:01:37;;;;;;;7.05;6.35;;;;;;;18.45;65.27;102725.06;5039172;23;20421;-85
2021/10/10 16:10:31;;;;;;;7.55;6.75;;;;;;;18.47;65.36;102727.72;5021425;23;20076;-88
2021/10/10 16:16:46;;;;;;;6.95;6.25;;;;;;;18.49;65.55;102732.09;4939081;29;20043;-88
2021/10/10 16:19:12;;;;;;;7.72;6.13;;;;;;;18.50;65.65;102739.06;4862700;29;20502;-87
2021/10/10 16:21:38;;;;;;;6.63;5.90;;;;;;;18.49;65.57;102733.84;4860935;29;20527;-87
2021/10/10 16:24:05;;;;;;;7.53;6.40;;;;;;;18.48;65.59;102730.31;4844002;29;20046;-86
2021/10/10 16:26:31;;;;;;;7.28;6.53;;;;;;;18.47;65.53;102730.31;4872490;29;20033;-82
2021/10/10 16:29:02;;;;;;;7.93;6.18;;;;;;;18.47;65.57;102725.13;4874173;29;20099;-87
2021/10/10 16:52:52;;;;;;;14.40;7.25;;;;;;;18.75;69.27;102735.97;5005649;23;20422;-89
2021/10/10 16:55:17;;;;;;;10.38;7.88;;;;;;;18.75;68.58;102726.44;4912223;29;20067;-88
2021/10/10 17:04:30;;;;;;;8.05;6.68;;;;;;;18.72;67.33;102742.03;4930208;29;20039;-84
2021/10/10 17:06:56;;;;;;;12.35;6.93;;;;;;;18.74;66.99;102734.22;4908387;29;20032;-85
2021/10/10 17:09:50;;;;;;;11.32;7.05;;;;;;;18.81;66.89;102734.38;4881454;29;20042;-85
2021/10/10 17:12:16;;;;;;;8.68;6.85;;;;;;;18.81;66.90;102730.88;4928190;29;20400;-84
2021/10/10 17:14:42;;;;;;;7.43;6.60;;;;;;;18.83;67.03;102737.00;4909372;29;20035;-87
2021/10/10 17:17:08;;;;;;;7.85;6.47;;;;;;;18.85;67.09;102737.91;4910909;29;20083;-85
2021/10/10 17:19:34;;;;;;;11.18;6.35;;;;;;;18.87;67.28;102730.97;4880260;29;20032;-87
2021/10/10 17:21:59;;;;;;;8.38;6.03;;;;;;;18.83;67.70;102729.19;4896449;29;20032;-86
2021/10/10 17:24:25;;;;;;;8.25;6.75;;;;;;;18.80;67.81;102726.53;4878566;29;20500;-86
2021/10/10 17:26:53;;;;;;;7.57;6.65;;;;;;;18.77;67.84;102722.13;4895098;29;20031;-86
2021/10/10 17:29:20;;;;;;;7.72;5.93;;;;;;;18.75;67.75;102717.72;4909662;29;20024;-87
2021/10/10 17:31:52;;;;;;;10.25;6.95;;;;;;;18.73;68.06;102719.41;4897411;29;20068;-84
2021/10/10 17:34:18;;;;;;;8.27;6.75;;;;;;;18.73;68.14;102724.63;4912485;29;20024;-85
2021/10/10 17:36:44;;;;;;;7.95;6.80;;;;;;;18.70;68.04;102717.66;4905952;29;20500;-84
2021/10/10 17:39:10;;;;;;;8.23;6.55;;;;;;;18.68;67.97;102725.47;4904844;29;20123;-81
2021/10/10 17:41:37;;;;;;;11.27;6.50;;;;;;;18.67;68.25;102726.31;4884781;29;20191;-81
2021/10/10 17:44:03;;;;;;;9.88;6.47;;;;;;;18.68;68.34;102728.06;4885904;29;20485;-82
2021/10/10 17:46:29;;;;;;;7.35;6.53;;;;;;;18.64;68.06;102726.25;4886515;29;20126;-82
2021/10/10 17:48:55;;;;;;;9.85;6.10;;;;;;;18.64;68.23;102723.66;4888256;29;20086;-83
2021/10/10 17:51:21;;;;;;;7.90;6.03;;;;;;;18.64;67.99;102734.09;4881554;29;20036;-82
2021/10/10 17:53:46;;;;;;;7.28;5.63;;;;;;;18.65;68.06;102724.53;4887115;29;20051;-81
2021/10/10 17:56:14;;;;;;;7.85;6.20;;;;;;;18.63;68.27;102723.63;4871684;29;20056;-83
2021/10/10 18:12:26;;;;;;;6.25;5.60;;;;;;;18.60;68.11;102729.69;4885024;29;20507;-81
2021/10/10 18:14:52;;;;;;;7.28;5.60;;;;;;;18.62;67.73;102732.31;4868019;29;20394;-82
2021/10/10 18:17:20;;;;;;;7.07;5.60;;;;;;;18.59;68.16;102725.28;4866908;29;20553;-83
2021/10/10 18:19:46;;;;;;;5.88;5.28;;;;;;;18.59;67.94;102727.91;4883097;29;20392;-83
2021/10/10 18:22:12;;;;;;;7.22;5.40;;;;;;;18.59;67.87;102727.91;4883804;29;20489;-82
2021/10/10 18:24:38;;;;;;;7.25;5.43;;;;;;;18.59;67.93;102727.91;4902074;29;20162;-87
2021/10/10 18:27:04;;;;;;;5.88;5.28;;;;;;;18.58;67.97;102736.59;4870618;29;20048;-83
2021/10/10 18:29:30;;;;;;;6.65;5.95;;;;;;;18.58;68.03;102733.97;4900448;29;20028;-83
2021/10/10 18:31:55;;;;;;;5.88;5.13;;;;;;;18.59;67.62;102745.28;4883597;29;20032;-83
2021/10/10 18:34:21;;;;;;;6.22;5.63;;;;;;;18.58;67.76;102738.31;4868603;29;20024;-83
2021/10/10 18:36:47;;;;;;;6.00;5.15;;;;;;;18.58;67.50;102736.59;4869225;29;20035;-83
2021/10/10 18:39:16;;;;;;;6.93;5.30;;;;;;;18.58;67.73;102739.19;4867984;29;20486;-83
2021/10/10 18:41:43;;;;;;;6.28;5.28;;;;;;;18.58;67.77;102740.94;4884476;29;20559;-84
2021/10/10 18:44:10;;;;;;;5.40;4.90;;;;;;;18.58;67.58;102752.22;4892016;29;20033;-85
2021/10/10 18:46:36;;;;;;;8.23;5.40;;;;;;;18.59;67.64;102761.78;4875284;29;20493;-85
2021/10/10 18:49:03;;;;;;;7.75;5.65;;;;;;;18.57;67.62;102757.41;4883632;29;20028;-83
2021/10/10 18:51:32;;;;;;;6.70;5.05;;;;;;;18.59;67.73;102755.72;4882368;29;20359;-83
2021/10/10 18:53:58;;;;;;;5.68;5.13;;;;;;;18.60;67.68;102770.53;4888618;29;20035;-82
2021/10/10 18:56:24;;;;;;;5.22;4.70;;;;;;;18.59;67.71;102767.00;4872518;29;20050;-85
2021/10/10 18:58:50;;;;;;;6.32;5.00;;;;;;;18.58;67.60;102770.50;4872534;29;20037;-83
2021/10/10 19:01:16;;;;;;;6.93;5.22;;;;;;;18.57;67.57;102763.50;4886690;29;20111;-85
2021/10/10 19:03:42;;;;;;;5.53;4.75;;;;;;;18.57;67.50;102770.44;4874278;29;20132;-82
2021/10/10 19:06:08;;;;;;;5.18;4.68;;;;;;;18.57;67.54;102768.72;4886945;29;20112;-84
2021/10/10 19:08:34;;;;;;;6.70;5.32;;;;;;;18.57;67.52;102770.44;4888243;29;20478;-83
2021/10/10 19:11:01;;;;;;;4.97;4.47;;;;;;;18.56;67.63;102772.19;4892376;29;20028;-84
2021/10/10 19:13:26;;;;;;;5.47;4.60;;;;;;;18.57;67.62;102781.75;4891374;29;20120;-83
2021/10/10 19:15:51;;;;;;;5.63;4.90;;;;;;;18.57;67.62;102776.53;4871710;29;20064;-83
2021/10/10 19:18:17;;;;;;;5.47;4.63;;;;;;;18.56;67.64;102776.53;4885364;29;20039;-82
2021/10/10 19:20:43;;;;;;;5.20;4.70;;;;;;;18.56;67.38;102782.63;4887043;29;20036;-82
2021/10/10 19:23:08;;;;;;;6.03;4.50;;;;;;;18.57;67.58;102786.09;4872811;29;20541;-82
2021/10/10 19:25:34;;;;;;;5.22;4.72;;;;;;;18.57;67.40;102783.50;4887956;29;20079;-82
2021/10/10 19:28:03;;;;;;;5.60;4.32;;;;;;;18.57;67.41;102781.75;4903492;29;20028;-83
2021/10/10 19:30:30;;;;;;;5.30;4.80;;;;;;;18.56;67.31;102777.41;4886417;29;20037;-82
2021/10/10 19:32:57;;;;;;;5.30;4.80;;;;;;;18.56;67.32;102784.34;4889054;29;20458;-84
2021/10/10 19:35:22;;;;;;;5.55;4.65;;;;;;;18.55;67.10;102775.63;4892773;29;20473;-83
2021/10/10 19:37:48;;;;;;;5.53;4.60;;;;;;;18.57;67.41;102783.50;4889089;29;20033;-84
2021/10/10 19:40:14;;;;;;;4.80;4.38;;;;;;;18.56;67.23;102793.03;4887661;29;20485;-85
2021/10/10 19:42:40;;;;;;;4.97;4.47;;;;;;;18.56;67.22;102792.19;4895309;29;20029;-84
2021/10/10 19:45:06;;;;;;;5.20;4.40;;;;;;;18.56;67.31;102794.78;4891531;29;20131;-83
2021/10/10 19:47:31;;;;;;;5.30;4.70;;;;;;;18.56;67.24;102800.00;4858987;29;20040;-83
2021/10/10 19:50:15;;;;;;;5.03;4.35;;;;;;;18.56;67.19;102795.66;4888966;29;20033;-83
2021/10/10 19:52:41;;;;;;;6.03;4.13;;;;;;;18.56;67.22;102800.00;4895942;29;20088;-84
2021/10/10 19:55:08;;;;;;;5.00;4.50;;;;;;;18.56;67.38;102800.88;4896940;29;20039;-85
2021/10/10 20:04:00;;;;;;;5.70;4.00;;;;;;;18.55;67.34;102796.50;4907768;29;20036;-83
2021/10/10 20:06:25;;;;;;;4.63;4.22;;;;;;;18.56;67.08;102793.03;4888635;29;20418;-82
2021/10/10 20:08:51;;;;;;;4.78;4.38;;;;;;;18.56;67.02;102793.03;4903455;29;20056;-81
2021/10/10 20:11:18;;;;;;;5.43;4.18;;;;;;;18.56;67.04;102789.56;4885466;29;20042;-82
2021/10/10 20:13:45;;;;;;;5.35;4.00;;;;;;;18.57;66.86;102793.91;4871109;29;20095;-83
2021/10/10 20:16:10;;;;;;;4.20;3.80;;;;;;;18.57;67.08;102796.53;4888637;29;20024;-82
2021/10/10 20:18:38;;;;;;;4.93;3.75;;;;;;;18.56;66.99;102797.41;4873410;29;20515;-83
2021/10/10 20:21:04;;;;;;;4.68;3.75;;;;;;;18.56;66.78;102792.19;4872861;29;20085;-84
2021/10/10 20:23:30;;;;;;;4.55;3.97;;;;;;;18.55;67.07;102799.09;4888071;29;20029;-83
2021/10/10 20:25:55;;;;;;;5.03;3.90;;;;;;;18.55;66.85;102803.44;4886309;29;20028;-84
2021/10/10 20:28:21;;;;;;;5.03;3.75;;;;;;;18.54;66.93;102796.50;4872053;29;20029;-84
2021/10/10 20:30:46;;;;;;;6.03;3.92;;;;;;;18.54;66.89;102806.91;4873559;29;20126;-84
2021/10/10 20:33:13;;;;;;;5.13;4.05;;;;;;;18.55;66.75;102806.91;4886759;29;20033;-83
2021/10/10 20:35:40;;;;;;;4.57;4.03;;;;;;;18.55;66.81;102806.03;4886742;29;20397;-82
2021/10/10 20:38:06;;;;;;;4.65;4.00;;;;;;;18.56;66.69;102805.22;4889411;29;20041;-82
2021/10/10 20:40:31;;;;;;;5.20;4.22;;;;;;;18.55;66.82;102811.25;4877527;29;20060;-85
2021/10/10 20:43:15;;;;;;;4.35;3.80;;;;;;;18.55;66.85;102808.66;4858770;29;20028;-83
2021/10/10 20:45:41;;;;;;;4.13;3.72;;;;;;;18.55;66.98;102813.88;4907721;29;20036;-84
2021/10/10 20:48:06;;;;;;;5.05;3.78;;;;;;;18.54;66.82;102804.31;4891418;29;20029;-83
2021/10/10 20:50:32;;;;;;;4.38;3.35;;;;;;;18.55;66.61;102806.03;4891437;29;20095;-83
2021/10/10 20:52:57;;;;;;;4.78;3.58;;;;;;;18.53;66.91;102808.66;4858540;29;20053;-83
2021/10/10 20:55:27;;;;;;;4.00;3.53;;;;;;;18.55;66.65;102812.13;4907814;29;20032;-82
2021/10/10 20:57:52;;;;;;;4.32;3.63;;;;;;;18.55;66.56;102808.66;4868743;29;20016;-81
2021/10/10 21:00:18;;;;;;;4.35;3.65;;;;;;;18.55;66.55;102811.25;4901478;29;20538;-82
2021/10/10 21:09:01;;;;;;;5.33;3.70;;;;;;;18.53;66.90;102812.97;5184552;23;20056;-90
2021/10/10 21:17:46;;;;;;;6.35;3.45;;;;;;;18.47;67.27;102816.34;5105699;23;20080;-91
2021/10/10 21:23:39;;;;;;;3.80;3.30;;;;;;;18.48;67.04;102815.50;4947278;23;20064;-90
2021/10/10 21:46:08;;;;;;;4.60;3.22;;;;;;;18.42;67.02;102807.56;4959105;29;20039;-88
2021/10/10 21:52:50;;;;;;;4.80;3.33;;;;;;;18.41;67.46;102806.69;4956795;29;20046;-89
2021/10/10 21:59:16;;;;;;;6.18;2.95;;;;;;;18.41;67.28;102801.47;4959063;29;20117;-90
2021/10/10 22:44:21;;;;;;;4.22;2.78;;;;;;;18.37;66.65;102804.00;5365424;23;20075;-92
2021/10/10 22:58:33;;;;;;;3.65;2.85;;;;;;;18.37;66.66;102809.22;5045432;23;20459;-92
2021/10/10 23:37:24;;;;;;;4.40;2.67;;;;;;;18.36;66.13;102808.34;5202543;23;20060;-89
2021/10/10 23:59:22;;;;;;;3.67;2.42;;;;;;;18.34;66.21;102812.63;5409057;23;20085;-92
